createdAt,value
2022-10-05T00:01:21.689Z,3.60
2022-10-05T00:04:15.911Z,4.07
2022-10-05T00:07:12.879Z,4.07
2022-10-05T00:10:00.306Z,4.03
2022-10-05T00:12:48.442Z,3.95
2022-10-05T00:15:35.934Z,4.35
2022-10-05T00:18:22.998Z,4.25
2022-10-05T00:21:29.135Z,4.13
2022-10-05T00:24:19.316Z,4.55
2022-10-05T00:27:19.860Z,4.70
2022-10-05T00:30:16.463Z,4.85
2022-10-05T00:33:03.620Z,4.20
2022-10-05T00:35:51.056Z,4.30
2022-10-05T00:38:38.259Z,4.80
2022-10-05T00:41:50.024Z,4.00
2022-10-05T00:44:52.334Z,4.20
2022-10-05T00:48:16.935Z,4.00
2022-10-05T00:51:27.183Z,3.85
2022-10-05T00:54:41.214Z,3.97
2022-10-05T00:57:39.531Z,5.47
2022-10-05T01:00:27.901Z,4.00
2022-10-05T01:03:29.402Z,4.38
2022-10-05T01:06:45.463Z,4.90
2022-10-05T01:09:33.003Z,4.45
2022-10-05T01:12:37.739Z,4.47
2022-10-05T01:15:34.150Z,4.65
2022-10-05T01:18:40.175Z,4.75
2022-10-05T01:21:30.346Z,5.00
2022-10-05T01:24:27.114Z,4.77
2022-10-05T01:27:28.671Z,4.32
2022-10-05T01:30:20.818Z,4.72
2022-10-05T01:33:21.092Z,4.53
2022-10-05T01:36:18.764Z,4.75
2022-10-05T01:39:32.466Z,4.72
2022-10-05T01:42:31.812Z,4.53
2022-10-05T01:45:56.515Z,5.40
2022-10-05T01:48:58.772Z,5.43
2022-10-05T01:52:07.562Z,5.35
2022-10-05T01:55:21.968Z,5.38
2022-10-05T01:58:27.424Z,5.70
2022-10-05T02:01:17.584Z,6.22
2022-10-05T02:04:29.575Z,5.47
2022-10-05T02:11:02.068Z,5.10
2022-10-05T02:13:55.864Z,5.68
2022-10-05T02:16:48.476Z,5.13
2022-10-05T02:19:35.750Z,5.03
2022-10-05T02:22:46.365Z,4.97
2022-10-05T02:25:38.598Z,5.05
2022-10-05T02:28:33.969Z,5.10
2022-10-05T02:31:31.295Z,4.57
2022-10-05T02:34:29.229Z,4.40
2022-10-05T02:37:46.405Z,4.63
2022-10-05T02:40:51.563Z,4.80
2022-10-05T02:44:07.477Z,4.75
2022-10-05T02:47:11.189Z,4.72
2022-10-05T02:50:18.588Z,4.32
2022-10-05T02:53:45.551Z,4.50
2022-10-05T02:57:10.113Z,3.90
2022-10-05T03:00:00.365Z,4.70
2022-10-05T03:03:20.448Z,4.10
2022-10-05T03:06:20.252Z,4.32
2022-10-05T03:09:09.854Z,4.53
2022-10-05T03:12:01.145Z,4.35
2022-10-05T03:15:11.128Z,4.60
2022-10-05T03:18:23.938Z,5.47
2022-10-05T03:21:23.871Z,5.38
2022-10-05T03:24:33.027Z,5.82
2022-10-05T03:27:47.609Z,5.63
2022-10-05T03:30:42.598Z,5.03
2022-10-05T03:33:53.230Z,5.40
2022-10-05T03:36:55.141Z,5.30
2022-10-05T03:39:51.425Z,4.75
2022-10-05T03:43:15.835Z,4.95
2022-10-05T03:46:05.920Z,4.72
2022-10-05T03:49:07.527Z,5.15
2022-10-05T03:52:03.334Z,5.05
2022-10-05T03:55:17.196Z,4.63
2022-10-05T03:58:12.343Z,4.85
2022-10-05T04:01:04.914Z,5.20
2022-10-05T04:03:59.493Z,5.20
2022-10-05T04:06:50.297Z,4.85
2022-10-05T04:09:41.372Z,5.53
2022-10-05T04:15:48.743Z,5.05
2022-10-05T04:18:42.158Z,4.90
2022-10-05T04:21:46.677Z,5.55
2022-10-05T04:24:58.523Z,5.55
2022-10-05T04:27:52.067Z,5.40
2022-10-05T04:30:44.074Z,6.40
2022-10-05T04:33:32.222Z,6.85
2022-10-05T04:36:30.290Z,6.20
2022-10-05T04:39:44.889Z,6.65
2022-10-05T04:42:44.326Z,6.20
2022-10-05T04:45:49.871Z,5.53
2022-10-05T04:49:20.316Z,5.90
2022-10-05T04:52:17.384Z,5.38
2022-10-05T04:55:42.250Z,6.15
2022-10-05T04:59:12.815Z,5.90
2022-10-05T05:02:26.967Z,5.53
2022-10-05T05:05:23.599Z,5.88
2022-10-05T05:08:24.340Z,6.10
2022-10-05T05:11:26.341Z,5.65
2022-10-05T05:14:26.830Z,5.55
2022-10-05T05:17:33.482Z,5.90
2022-10-05T05:20:32.975Z,5.82
2022-10-05T05:23:35.865Z,5.93
2022-10-05T05:26:39.195Z,6.32
2022-10-05T05:30:01.283Z,6.18
2022-10-05T05:33:19.704Z,6.70
2022-10-05T05:36:49.465Z,6.03
2022-10-05T05:39:50.601Z,6.00
2022-10-05T05:42:57.899Z,6.65
2022-10-05T05:45:54.574Z,6.60
2022-10-05T05:48:46.549Z,6.03
2022-10-05T05:51:43.334Z,6.80
2022-10-05T05:54:39.138Z,6.75
2022-10-05T05:57:39.052Z,6.18
2022-10-05T06:00:38.773Z,6.20
2022-10-05T06:03:38.182Z,6.43
2022-10-05T06:06:40.585Z,6.70
2022-10-05T06:09:39.906Z,7.32
2022-10-05T06:12:41.555Z,7.05
2022-10-05T06:15:43.962Z,7.38
2022-10-05T06:18:33.088Z,6.47
2022-10-05T06:21:45.049Z,7.00
2022-10-05T06:24:40.136Z,7.43
2022-10-05T06:27:35.197Z,7.25
2022-10-05T06:30:23.924Z,7.65
2022-10-05T06:33:34.154Z,6.80
2022-10-05T06:36:35.029Z,7.72
2022-10-05T06:42:30.277Z,6.20
2022-10-05T06:45:53.142Z,5.78
2022-10-05T06:49:22.597Z,5.57
2022-10-05T06:52:39.913Z,5.00
2022-10-05T06:55:35.223Z,5.50
2022-10-05T06:58:31.520Z,4.60
2022-10-05T07:01:19.947Z,4.35
2022-10-05T07:04:24.043Z,4.82
2022-10-05T07:07:47.447Z,4.50
2022-10-05T07:10:47.003Z,4.18
2022-10-05T07:13:59.245Z,4.60
2022-10-05T07:17:05.204Z,4.90
2022-10-05T07:19:58.673Z,4.50
2022-10-05T07:23:04.222Z,4.38
2022-10-05T07:26:06.301Z,4.60
2022-10-05T07:28:57.590Z,4.78
2022-10-05T07:32:11.587Z,5.00
2022-10-05T07:35:53.751Z,4.47
2022-10-05T07:38:54.514Z,4.57
2022-10-05T07:41:51.617Z,4.53
2022-10-05T07:44:49.511Z,4.25
2022-10-05T07:47:48.035Z,4.70
2022-10-05T07:50:45.532Z,4.55
2022-10-05T07:53:39.420Z,4.30
2022-10-05T07:56:43.936Z,4.72
2022-10-05T08:00:06.914Z,4.78
2022-10-05T08:03:14.341Z,4.60
2022-10-05T08:06:04.490Z,4.28
2022-10-05T08:09:00.629Z,4.30
2022-10-05T08:12:07.207Z,4.60
2022-10-05T08:15:02.706Z,4.40
2022-10-05T08:18:00.480Z,4.65
2022-10-05T08:20:53.573Z,4.25
2022-10-05T08:23:58.185Z,4.55
2022-10-05T08:27:01.132Z,4.88
2022-10-05T08:29:51.496Z,4.45
2022-10-05T08:33:16.740Z,4.53
2022-10-05T08:36:10.748Z,4.22
2022-10-05T08:39:03.958Z,4.03
2022-10-05T08:42:03.899Z,3.92
2022-10-05T08:45:26.885Z,3.80
2022-10-05T08:48:51.360Z,3.92
2022-10-05T08:51:41.465Z,3.50
2022-10-05T08:55:00.850Z,3.78
2022-10-05T08:58:21.790Z,3.72
2022-10-05T09:01:30.801Z,3.78
2022-10-05T09:04:58.080Z,3.55
2022-10-05T09:08:30.964Z,3.97
2022-10-05T09:11:59.947Z,3.15
2022-10-05T09:15:20.889Z,3.22
2022-10-05T09:18:24.448Z,3.40
2022-10-05T09:21:42.111Z,3.17
2022-10-05T09:24:48.773Z,3.10
2022-10-05T09:27:38.746Z,2.92
2022-10-05T09:30:53.752Z,3.20
2022-10-05T09:34:06.479Z,3.00
2022-10-05T09:37:08.696Z,2.92
2022-10-05T09:40:14.490Z,2.25
2022-10-05T09:43:22.365Z,2.40
2022-10-05T09:46:28.549Z,2.65
2022-10-05T09:49:49.816Z,2.50
2022-10-05T09:52:49.078Z,2.35
2022-10-05T09:55:54.410Z,2.30
2022-10-05T09:59:18.555Z,2.40
2022-10-05T10:02:19.888Z,2.30
2022-10-05T10:05:32.083Z,2.20
2022-10-05T10:08:51.933Z,2.30
2022-10-05T10:12:09.576Z,2.20
2022-10-05T10:15:09.353Z,2.30
2022-10-05T10:18:11.649Z,2.20
2022-10-05T10:21:33.123Z,2.65
2022-10-05T10:24:29.413Z,2.10
2022-10-05T10:27:34.655Z,2.10
2022-10-05T10:30:43.427Z,2.22
2022-10-05T10:34:04.523Z,2.20
2022-10-05T10:37:20.579Z,2.00
2022-10-05T10:40:26.153Z,2.05
2022-10-05T10:43:34.596Z,2.03
2022-10-05T10:46:53.952Z,1.73
2022-10-05T10:49:59.969Z,2.22
2022-10-05T10:53:00.135Z,2.03
2022-10-05T10:56:20.833Z,2.05
2022-10-05T10:59:29.250Z,1.85
2022-10-05T11:05:24.433Z,1.60
2022-10-05T11:08:27.402Z,1.70
2022-10-05T11:11:39.434Z,1.50
2022-10-05T11:15:01.776Z,1.60
2022-10-05T11:17:48.929Z,1.45
2022-10-05T11:20:59.765Z,1.75
2022-10-05T11:24:05.296Z,1.75
2022-10-05T11:27:11.011Z,1.80
2022-10-05T11:30:47.445Z,1.48
2022-10-05T11:33:59.223Z,1.80
2022-10-05T11:37:03.034Z,1.50
2022-10-05T11:40:27.766Z,1.35
2022-10-05T11:43:33.470Z,1.40
2022-10-05T11:46:46.254Z,1.45
2022-10-05T11:49:36.326Z,1.20
2022-10-05T11:52:35.760Z,1.13
2022-10-05T11:55:48.569Z,1.25
2022-10-05T11:58:43.643Z,1.30
2022-10-05T12:01:59.832Z,1.20
2022-10-05T12:05:11.252Z,1.38
2022-10-05T12:08:11.804Z,1.42
2022-10-05T12:13:53.506Z,1.60
2022-10-05T12:16:43.822Z,1.40
2022-10-05T12:19:38.681Z,1.20
2022-10-05T12:22:41.446Z,1.27
2022-10-05T12:25:36.337Z,1.30
2022-10-05T12:28:51.926Z,1.40
2022-10-05T12:31:53.778Z,1.40
2022-10-05T12:34:50.256Z,1.40
2022-10-05T12:37:53.380Z,1.40
2022-10-05T12:40:46.209Z,1.60
2022-10-05T12:43:45.469Z,1.40
2022-10-05T12:46:59.426Z,1.50
2022-10-05T12:50:20.985Z,1.30
2022-10-05T12:53:19.485Z,1.50
2022-10-05T12:56:43.734Z,1.50
2022-10-05T12:59:59.590Z,1.30
2022-10-05T13:02:48.619Z,1.50
2022-10-05T13:05:46.865Z,1.35
2022-10-05T13:09:27.073Z,1.60
2022-10-05T13:12:35.333Z,1.60
2022-10-05T13:15:30.238Z,1.92
2022-10-05T13:18:26.345Z,1.52
2022-10-05T13:21:19.673Z,1.58
2022-10-05T13:24:12.926Z,1.70
2022-10-05T13:27:14.122Z,1.60
2022-10-05T13:30:16.708Z,1.60
2022-10-05T13:33:07.551Z,1.63
2022-10-05T13:36:03.532Z,1.70
2022-10-05T13:38:50.598Z,1.80
2022-10-05T13:42:05.871Z,1.60
2022-10-05T13:45:01.085Z,1.67
2022-10-05T13:47:57.154Z,2.00
2022-10-05T13:51:29.441Z,1.80
2022-10-05T13:54:38.024Z,1.70
2022-10-05T13:57:51.582Z,1.60
2022-10-05T14:00:54.275Z,1.60
2022-10-05T14:04:02.270Z,1.80
2022-10-05T14:06:49.621Z,1.55
2022-10-05T14:09:36.962Z,1.60
2022-10-05T14:12:26.767Z,1.70
2022-10-05T14:15:32.530Z,1.83
2022-10-05T14:18:28.692Z,1.70
2022-10-05T14:21:24.907Z,1.60
2022-10-05T14:24:45.179Z,1.70
2022-10-05T14:27:49.619Z,1.90
2022-10-05T14:30:36.684Z,2.20
2022-10-05T14:33:23.962Z,2.25
2022-10-05T14:36:23.623Z,1.80
2022-10-05T14:39:13.586Z,1.67
2022-10-05T14:42:16.461Z,1.85
2022-10-05T14:45:15.522Z,1.98
2022-10-05T14:48:10.299Z,2.50
2022-10-05T14:51:03.239Z,1.92
2022-10-05T14:53:59.046Z,1.75
2022-10-05T14:57:14.363Z,1.58
2022-10-05T15:00:16.081Z,1.85
2022-10-05T15:03:17.432Z,2.10
2022-10-05T15:06:15.928Z,2.72
2022-10-05T15:09:24.688Z,2.63
2022-10-05T15:12:15.092Z,2.08
2022-10-05T15:15:41.263Z,1.75
2022-10-05T15:18:44.420Z,1.75
2022-10-05T15:21:31.415Z,1.90
2022-10-05T15:24:22.168Z,2.40
2022-10-05T15:30:18.669Z,1.60
2022-10-05T15:33:43.176Z,1.88
2022-10-05T15:36:59.489Z,1.70
2022-10-05T15:39:55.483Z,1.80
2022-10-05T15:42:43.794Z,1.70
2022-10-05T15:45:35.366Z,1.90
2022-10-05T15:48:36.175Z,2.00
2022-10-05T15:54:47.262Z,1.75
2022-10-05T15:57:55.723Z,1.67
2022-10-05T16:00:50.349Z,1.70
2022-10-05T16:03:57.471Z,2.67
2022-10-05T16:07:15.506Z,1.95
2022-10-05T16:10:08.936Z,2.00
2022-10-05T16:13:23.927Z,1.90
2022-10-05T16:16:29.016Z,2.17
2022-10-05T16:19:37.002Z,2.42
2022-10-05T16:22:43.778Z,2.15
2022-10-05T16:26:04.884Z,2.38
2022-10-05T16:29:11.366Z,2.33
2022-10-05T16:32:30.503Z,2.25
2022-10-05T16:35:53.558Z,2.40
2022-10-05T16:38:57.804Z,2.60
2022-10-05T16:42:11.894Z,2.60
2022-10-05T16:45:14.159Z,2.47
2022-10-05T16:48:09.612Z,2.55
2022-10-05T16:51:26.138Z,2.60
2022-10-05T16:54:47.859Z,3.00
2022-10-05T16:57:46.527Z,2.58
2022-10-05T17:00:51.932Z,2.80
2022-10-05T17:03:51.236Z,2.50
2022-10-05T17:07:02.934Z,2.70
2022-10-05T17:10:24.961Z,2.90
2022-10-05T17:13:45.818Z,3.15
2022-10-05T17:16:58.189Z,3.20
2022-10-05T17:19:55.477Z,2.92
2022-10-05T17:23:16.035Z,3.25
2022-10-05T17:26:16.673Z,3.20
2022-10-05T17:29:16.838Z,3.50
2022-10-05T17:32:11.912Z,3.63
2022-10-05T17:35:19.238Z,3.70
2022-10-05T17:38:15.454Z,3.22
2022-10-05T17:41:20.777Z,3.17
2022-10-05T17:44:16.033Z,3.20
2022-10-05T17:47:08.254Z,3.25
2022-10-05T17:50:16.585Z,3.25
2022-10-05T17:53:54.264Z,5.13
2022-10-05T17:56:47.839Z,3.25
2022-10-05T17:59:56.831Z,3.35
2022-10-05T18:02:44.120Z,3.30
2022-10-05T18:05:31.384Z,3.03
2022-10-05T18:08:30.265Z,2.80
2022-10-05T18:14:20.997Z,2.47
2022-10-05T18:17:12.988Z,2.40
2022-10-05T18:20:13.862Z,2.60
2022-10-05T18:23:06.197Z,2.63
2022-10-05T18:26:03.819Z,2.65
2022-10-05T18:29:13.784Z,2.45
2022-10-05T18:32:08.111Z,2.20
2022-10-05T18:35:14.323Z,2.10
2022-10-05T18:38:13.164Z,2.17
2022-10-05T18:41:20.087Z,2.20
2022-10-05T18:44:36.642Z,2.17
2022-10-05T18:47:45.319Z,2.00
2022-10-05T18:50:54.855Z,1.85
2022-10-05T18:53:47.445Z,2.13
2022-10-05T18:56:48.683Z,1.65
2022-10-05T19:00:31.741Z,2.47
2022-10-05T19:03:46.407Z,1.73
2022-10-05T19:06:46.462Z,1.60
2022-10-05T19:09:47.022Z,1.52
2022-10-05T19:12:50.487Z,1.65
2022-10-05T19:15:55.996Z,1.50
2022-10-05T19:19:09.637Z,1.70
2022-10-05T19:22:06.703Z,1.63
2022-10-05T19:25:23.612Z,1.73
2022-10-05T19:28:34.201Z,1.67
2022-10-05T19:31:30.441Z,1.45
2022-10-05T19:34:59.031Z,1.55
2022-10-05T19:37:52.002Z,1.58
2022-10-05T19:40:53.359Z,1.52
2022-10-05T19:43:56.060Z,1.65
2022-10-05T19:47:04.179Z,1.50
2022-10-05T19:49:57.247Z,1.50
2022-10-05T19:52:49.668Z,1.45
2022-10-05T19:55:46.919Z,1.75
2022-10-05T19:58:39.596Z,1.77
2022-10-05T20:01:33.536Z,1.63
2022-10-05T20:04:38.558Z,1.60
2022-10-05T20:07:25.669Z,1.40
2022-10-05T20:10:29.250Z,1.55
2022-10-05T20:13:21.733Z,1.40
2022-10-05T20:16:33.714Z,1.50
2022-10-05T20:19:51.617Z,1.50
2022-10-05T20:22:46.319Z,1.58
2022-10-05T20:25:36.991Z,1.50
2022-10-05T20:28:31.959Z,1.52
2022-10-05T20:31:20.032Z,1.50
2022-10-05T20:34:08.092Z,1.40
2022-10-05T20:36:55.248Z,1.55
2022-10-05T20:39:43.003Z,1.70
2022-10-05T20:42:30.060Z,1.55
2022-10-05T20:45:17.360Z,1.52
2022-10-05T20:48:04.785Z,1.77
2022-10-05T20:50:51.862Z,1.63
2022-10-05T20:53:38.921Z,1.42
2022-10-05T20:56:30.228Z,1.75
2022-10-05T20:59:17.862Z,1.65
2022-10-05T21:02:05.862Z,1.40
2022-10-05T21:04:53.028Z,1.60
2022-10-05T21:07:40.864Z,1.80
2022-10-05T21:10:28.009Z,1.70
2022-10-05T21:13:15.174Z,1.65
2022-10-05T21:16:02.536Z,1.80
2022-10-05T21:18:49.728Z,1.83
2022-10-05T21:21:37.052Z,1.58
2022-10-05T21:24:24.296Z,1.50
2022-10-05T21:27:11.427Z,1.60
2022-10-05T21:29:58.587Z,1.60
2022-10-05T21:32:45.766Z,1.80
2022-10-05T21:35:32.910Z,1.67
2022-10-05T21:38:19.985Z,1.50
2022-10-05T21:41:07.795Z,1.50
2022-10-05T21:43:54.891Z,1.42
2022-10-05T21:46:42.047Z,1.60
2022-10-05T21:49:29.313Z,1.50
2022-10-05T21:52:16.506Z,1.55
2022-10-05T21:55:05.078Z,1.42
2022-10-05T21:57:52.309Z,1.55
2022-10-05T22:00:41.152Z,1.67
2022-10-05T22:03:28.265Z,1.55
2022-10-05T22:06:15.388Z,1.65
2022-10-05T22:09:04.224Z,1.42
2022-10-05T22:11:51.426Z,1.85
2022-10-05T22:14:38.546Z,1.60
2022-10-05T22:17:28.690Z,1.30
2022-10-05T22:20:15.829Z,1.50
2022-10-05T22:23:03.312Z,1.60
2022-10-05T22:25:50.512Z,1.50
2022-10-05T22:28:39.500Z,1.60
2022-10-05T22:31:26.829Z,1.50
2022-10-05T22:34:14.800Z,1.55
2022-10-05T22:37:04.256Z,1.65
2022-10-05T22:39:51.365Z,1.60
2022-10-05T22:42:41.737Z,1.35
2022-10-05T22:45:32.469Z,1.30
2022-10-05T22:51:07.301Z,1.80
2022-10-05T22:53:54.517Z,1.42
2022-10-05T22:56:41.592Z,1.50
2022-10-05T22:59:30.793Z,1.40
2022-10-05T23:02:19.898Z,1.75
2022-10-05T23:05:08.485Z,1.65
2022-10-05T23:07:55.579Z,1.50
2022-10-05T23:10:43.328Z,1.60
2022-10-05T23:13:30.847Z,1.45
2022-10-05T23:16:20.392Z,1.48
2022-10-05T23:19:07.502Z,1.42
2022-10-05T23:21:54.581Z,1.60
2022-10-05T23:24:41.637Z,1.67
2022-10-05T23:27:28.805Z,1.63
2022-10-05T23:30:15.954Z,1.30
2022-10-05T23:33:03.034Z,1.70
2022-10-05T23:36:00.123Z,1.77
2022-10-05T23:38:47.624Z,2.15
2022-10-05T23:41:34.748Z,1.98
2022-10-05T23:44:23.007Z,1.85
2022-10-05T23:47:10.040Z,2.00
2022-10-05T23:49:57.137Z,1.80
2022-10-05T23:52:44.193Z,2.10
2022-10-05T23:55:31.181Z,2.55
2022-10-05T23:58:18.794Z,1.95
